< < Back
Terminal Aerodrome Forecast


Current Version              Previous Versions:   1  2  3  4  5  6  7  8  9  

Terminal Aerodrome Forecast

099
FTUS42 KCHS 292328
TAFCHS
TAF
KCHS 292328Z 3000/3024 12007KT P6SM VCSH SCT010 OVC020
     FM300300 VRB06KT P6SM VCSH SCT006 BKN010
     FM300800 31010KT P6SM VCSH SCT006 BKN010
     FM301700 29009KT P6SM VCSH SCT010 BKN025=

Latest METAR

320
SAUS80 KWBC 300100
MTRCHS
METAR KCHS 300056Z 04004KT 10SM FEW014 BKN022 OVC040 23/19 A2990 RMK AO2
SLP126 T02280189


USA.gov is the U.S. government's official web portal to all federal, state and local government web resources and services.